Frpd 309 — CFN7067 — position and weather

sailwx.info

Track history (hours):
 
Tides and Currents Weather Stations Pressure Air Temp Water Temp Dewpoint Dewpoint Depression Visibility Wind Speed Wind Dir Waves Ship Positions

Frpd 309

Last reported at 2017-Oct-18 02:00 UTC. Time now 2017-Oct-18 02:26 UTC.
Position N 49°08' W 123°13'.

Length 124 m; draft 6.9 m.

Type: Dredging. MMSI: 316029591.

Date/timePositionNaut miles runAvg speedWind from/ knotsBaromVisibWave heightAir tempDewpointWater temp
2017-Oct-18 02:00N 49°08' W 123°13'1 1.1
2017-Oct-18 01:30N 49°07' W 123°12'1 1.6
2017-Oct-18 01:00N 49°07' W 123°11'0 0.5
2017-Oct-18 00:30N 49°07' W 123°11'5 9.8
2017-Oct-18 00:00N 49°06' W 123°18'2 4.3
2017-Oct-17 23:31N 49°07' W 123°16'2 4.7
2017-Oct-17 23:01N 49°07' W 123°12'0 0.9
2017-Oct-17 22:30N 49°07' W 123°12'1 1.4
2017-Oct-17 22:00N 49°07' W 123°11'1 1.5
2017-Oct-17 21:31N 49°07' W 123°12'5 9.2
2017-Oct-17 21:00N 49°06' W 123°18'3 5.6
2017-Oct-17 20:30N 49°08' W 123°15'2 4.5
2017-Oct-17 19:59N 49°07' W 123°11'0 0.5
2017-Oct-17 19:29N 49°07' W 123°11'1 1.1
2017-Oct-17 19:00N 49°07' W 123°12'0 0.5
2017-Oct-17 18:30N 49°07' W 123°12'4 8.5
2017-Oct-17 18:00N 49°06' W 123°18'2 4.0
2017-Oct-17 17:31N 49°07' W 123°16'3 6.8
2017-Oct-17 17:01N 49°07' W 123°11'1 1.1
2017-Oct-17 16:30N 49°07' W 123°11'0 0.2
2017-Oct-17 16:01N 49°07' W 123°11'2 3.3
2017-Oct-17 15:30N 49°08' W 123°13'4 8.6
2017-Oct-17 15:00N 49°06' W 123°19'5 9.6
2017-Oct-17 14:30N 49°08' W 123°12'1 1.2
2017-Oct-17 14:00N 49°07' W 123°12'0 0.9
2017-Oct-17 13:31N 49°07' W 123°11'1 1.6
2017-Oct-17 13:00N 49°07' W 123°12'3 5.9
2017-Oct-17 12:30N 49°07' W 123°17'1 1.4
2017-Oct-17 12:00N 49°07' W 123°18'3 6.9
2017-Oct-17 11:30N 49°08' W 123°12'1 1.2
2017-Oct-17 11:00N 49°07' W 123°12'1 1.3
2017-Oct-17 10:30N 49°07' W 123°11'3 6.6
2017-Oct-17 10:01N 49°07' W 123°16'2 4.6
2017-Oct-17 09:30N 49°06' W 123°19'4 8.0
2017-Oct-17 09:00N 49°08' W 123°14'1 2.6
2017-Oct-17 08:30N 49°07' W 123°12'1 1.2
2017-Oct-17 08:01N 49°08' W 123°13'1 2.5
2017-Oct-17 07:30N 49°08' W 123°15'4 7.1
2017-Oct-17 07:00N 49°06' W 123°19'5 9.0
2017-Oct-17 06:30N 49°08' W 123°13'1 2.2
2017-Oct-17 06:01N 49°07' W 123°11'0 0.3
2017-Oct-17 05:30N 49°07' W 123°11'0 0.3
2017-Oct-17 05:00N 49°07' W 123°11'2 4.8
2017-Oct-17 04:30N 49°08' W 123°15'3 6.8
2017-Oct-17 04:00N 49°06' W 123°20'611.3
2017-Oct-17 03:30N 49°07' W 123°11'0 0.8
2017-Oct-17 03:01N 49°07' W 123°11'1 1.5
2017-Oct-17 02:30N 49°07' W 123°12'1 1.6
2017-Oct-17 02:00N 49°08' W 123°13'4 8.7
2017-Oct-17 01:31N 49°06' W 123°19'3 6.7
2017-Oct-17 01:00N 49°08' W 123°14'2 4.2
2017-Oct-17 00:30N 49°07' W 123°11'0 0.4
2017-Oct-17 00:00N 49°07' W 123°12'1 1.2
2017-Oct-16 23:30N 49°08' W 123°12'2 3.2
2017-Oct-16 23:00N 49°08' W 123°15'3 5.3
2017-Oct-16 22:30N 49°06' W 123°18'4 8.2
2017-Oct-16 22:00N 49°07' W 123°12'1 1.1
2017-Oct-16 21:31N 49°07' W 123°12'1 1.0
2017-Oct-16 21:00N 49°07' W 123°11'2 3.5
2017-Oct-16 20:31N 49°08' W 123°13'4 8.1
2017-Oct-16 20:01N 49°06' W 123°19'5 9.4
2017-Oct-16 19:31N 49°07' W 123°12'0 0.8
2017-Oct-16 19:00N 49°07' W 123°12'0 0.3
2017-Oct-16 18:31N 49°07' W 123°11'1 1.2
2017-Oct-16 18:00N 49°07' W 123°12'2 3.3
2017-Oct-16 17:30N 49°08' W 123°15'3 7.0
2017-Oct-16 17:00N 49°06' W 123°20'1 2.1
2017-Oct-16 16:30N 49°06' W 123°18'0 0.2
2017-Oct-16 16:00N 49°06' W 123°18'0 0.5
2017-Oct-16 15:30N 49°06' W 123°18'1 1.8
2017-Oct-16 15:01N 49°06' W 123°20'6 5.6
2017-Oct-16 14:00N 49°07' W 123°11'0 0.3
2017-Oct-16 13:30N 49°07' W 123°12'1 1.4
2017-Oct-16 13:00N 49°08' W 123°12'4 7.5
2017-Oct-16 12:30N 49°06' W 123°18'1 1.1
2017-Oct-16 12:00N 49°07' W 123°17'4 8.6
2017-Oct-16 11:30N 49°07' W 123°11'1 1.4
2017-Oct-16 11:00N 49°07' W 123°12'1 1.4
2017-Oct-16 10:30N 49°08' W 123°12'2 4.8
2017-Oct-16 10:00N 49°07' W 123°16'2 3.3
2017-Oct-16 09:30N 49°06' W 123°18'5 9.9
2017-Oct-16 09:00N 49°07' W 123°11'1 1.1
2017-Oct-16 08:30N 49°07' W 123°12'1 1.5
2017-Oct-16 08:00N 49°08' W 123°13'2 3.2
2017-Oct-16 07:30N 49°08' W 123°15'3 6.0
2017-Oct-16 07:00N 49°06' W 123°19'510.2
2017-Oct-16 06:30N 49°07' W 123°12'1 1.1
2017-Oct-16 06:00N 49°07' W 123°11'0 0.4
2017-Oct-16 05:30N 49°07' W 123°11'1 1.3
2017-Oct-16 05:00N 49°07' W 123°11'3 5.3
2017-Oct-16 04:30N 49°07' W 123°15'2 4.8
2017-Oct-16 04:00N 49°06' W 123°19'1 1.5
2017-Oct-16 03:30N 49°06' W 123°18'0 0.7
2017-Oct-16 03:00N 49°06' W 123°18'0 0.6
2017-Oct-16 02:30N 49°06' W 123°18'1 1.2
2017-Oct-16 02:00N 49°06' W 123°19'5 9.8
2017-Oct-16 01:30N 49°08' W 123°12'0 0.6
2017-Oct-16 01:01N 49°07' W 123°12'0 0.9
2017-Oct-16 00:30N 49°07' W 123°11'0 0.5
2017-Oct-16 00:00N 49°07' W 123°11'3 6.3
2017-Oct-15 23:30N 49°07' W 123°16'2 4.6
2017-Oct-15 23:00N 49°06' W 123°19'3 6.6
2017-Oct-15 22:30N 49°08' W 123°15'2 3.4
2017-Oct-15 22:00N 49°07' W 123°12'0 0.8
2017-Oct-15 21:30N 49°07' W 123°12'1 1.1
2017-Oct-15 21:00N 49°07' W 123°11'3 7.0
2017-Oct-15 20:30N 49°07' W 123°16'1 1.6
2017-Oct-15 20:00N 49°07' W 123°17'5 9.3
2017-Oct-15 19:30N 49°07' W 123°10'1 1.0
2017-Oct-15 19:00N 49°07' W 123°11'1 1.3
2017-Oct-15 18:30N 49°07' W 123°12'1 1.1
2017-Oct-15 18:00N 49°08' W 123°13'2 4.6
2017-Oct-15 17:30N 49°07' W 123°16'2 3.4
2017-Oct-15 17:00N 49°06' W 123°18'5 9.7
2017-Oct-15 16:30N 49°07' W 123°11'1 1.0
2017-Oct-15 16:00N 49°07' W 123°12'1 1.2
2017-Oct-15 15:30N 49°07' W 123°12'1 1.6
2017-Oct-15 15:00N 49°08' W 123°13'4 4.0
2017-Oct-15 14:00N 49°06' W 123°19'0 0.6
2017-Oct-15 13:30N 49°06' W 123°19'0 0.4
2017-Oct-15 13:00N 49°06' W 123°20'4 7.7
2017-Oct-15 12:30N 49°08' W 123°14'2 3.6
2017-Oct-15 12:00N 49°07' W 123°12'1 1.2
2017-Oct-15 11:30N 49°08' W 123°13'2 3.6
2017-Oct-15 11:00N 49°07' W 123°15'3 6.7
2017-Oct-15 10:30N 49°06' W 123°20'0 0.7
2017-Oct-15 10:00N 49°06' W 123°19'0 0.4
2017-Oct-15 09:30N 49°06' W 123°19'4 7.6
2017-Oct-15 09:00N 49°08' W 123°14'2 3.5
2017-Oct-15 08:30N 49°07' W 123°12'1 1.2
2017-Oct-15 08:00N 49°07' W 123°12'1 1.4
2017-Oct-15 07:30N 49°08' W 123°13'4 9.0
2017-Oct-15 07:00N 49°06' W 123°20'0 0.6
2017-Oct-15 06:30N 49°06' W 123°19'1 1.2
2017-Oct-15 06:00N 49°06' W 123°20'1 1.4
2017-Oct-15 05:30N 49°06' W 123°19'510.1
2017-Oct-15 05:00N 49°07' W 123°12'1 1.4
2017-Oct-15 04:30N 49°07' W 123°11'1 1.5
2017-Oct-15 04:00N 49°07' W 123°12'1 1.6
2017-Oct-15 03:30N 49°08' W 123°13'4 8.1
2017-Oct-15 03:00N 49°06' W 123°19'1 1.7
2017-Oct-15 02:30N 49°06' W 123°17'0 0.2
2017-Oct-15 02:00N 49°07' W 123°18'1 1.3
2017-Oct-15 01:30N 49°06' W 123°18'0 0.3
2017-Oct-15 01:00N 49°06' W 123°19'0 0.8
2017-Oct-15 00:30N 49°06' W 123°18'4 8.2
2017-Oct-15 00:00N 49°07' W 123°12'0 0.9
2017-Oct-14 23:30N 49°07' W 123°12'0 0.7
2017-Oct-14 23:00N 49°07' W 123°11'1 1.1
2017-Oct-14 22:30N 49°07' W 123°10'4 7.4
2017-Oct-14 22:00N 49°07' W 123°16'1 2.2
2017-Oct-14 21:30N 49°07' W 123°17'3 6.4
2017-Oct-14 21:00N 49°08' W 123°13'1 1.1
2017-Oct-14 20:30N 49°07' W 123°12'1 1.4
2017-Oct-14 20:00N 49°07' W 123°11'0 0.9
2017-Oct-14 19:30N 49°07' W 123°11'611.1
2017-Oct-14 19:00N 49°06' W 123°19'2 4.8
2017-Oct-14 18:30N 49°07' W 123°16'3 5.5
2017-Oct-14 18:00N 49°07' W 123°12'0 0.6
2017-Oct-14 17:30N 49°07' W 123°11'1 1.2
2017-Oct-14 17:00N 49°07' W 123°12'1 1.2
2017-Oct-14 16:30N 49°08' W 123°13'3 5.1
2017-Oct-14 16:00N 49°07' W 123°17'2 4.1
2017-Oct-14 15:30N 49°06' W 123°20'0 0.6
2017-Oct-14 15:00N 49°06' W 123°19'5 9.9
2017-Oct-14 14:30N 49°07' W 123°12'1 1.7
2017-Oct-14 14:00N 49°07' W 123°11'0 0.5
2017-Oct-14 13:30N 49°07' W 123°11'1 1.1
2017-Oct-14 13:00N 49°07' W 123°11'2 4.1
2017-Oct-14 12:30N 49°08' W 123°14'4 7.5
2017-Oct-14 12:00N 49°06' W 123°20'1 2.2
2017-Oct-14 11:30N 49°06' W 123°18'0 0.3
2017-Oct-14 11:00N 49°06' W 123°18'0 0.0
2017-Oct-14 10:30N 49°06' W 123°18'0 1.0
2017-Oct-14 10:00N 49°06' W 123°18'1 1.5
2017-Oct-14 09:30N 49°06' W 123°19'4 8.4
2017-Oct-14 09:00N 49°08' W 123°14'2 3.5
2017-Oct-14 08:30N 49°07' W 123°11'1 1.5
2017-Oct-14 08:00N 49°07' W 123°12'1 1.6
2017-Oct-14 07:30N 49°08' W 123°13'4 8.6
2017-Oct-14 07:00N 49°06' W 123°19'4 7.5
2017-Oct-14 06:30N 49°08' W 123°14'2 5.0
2017-Oct-14 06:00N 49°07' W 123°11'1 1.4
2017-Oct-14 05:30N 49°07' W 123°12'0 0.9
2017-Oct-14 05:00N 49°07' W 123°11'1 1.9
2017-Oct-14 04:30N 49°08' W 123°12'4 7.8
2017-Oct-14 04:00N 49°06' W 123°18'1 1.6
2017-Oct-14 03:30N 49°07' W 123°17'0 0.3
2017-Oct-14 03:00N 49°07' W 123°17'1 1.6
2017-Oct-14 02:30N 49°06' W 123°18'1 1.0
2017-Oct-14 02:00N 49°06' W 123°19'4 8.2
2017-Oct-14 01:30N 49°08' W 123°13'2 3.9
2017-Oct-14 01:00N 49°07' W 123°11'1 1.2
2017-Oct-14 00:28N 49°07' W 123°12'1 1.1
2017-Oct-13 23:55N 49°08' W 123°12'1 3.6
2017-Oct-13 23:30N 49°08' W 123°15'4 7.0
2017-Oct-13 23:00N 49°06' W 123°19'2 3.4
2017-Oct-13 22:30N 49°07' W 123°17'3 6.6
2017-Oct-13 22:00N 49°07' W 123°12'0 0.9
2017-Oct-13 21:30N 49°07' W 123°12'1 1.5
2017-Oct-13 21:00N 49°07' W 123°11'4 7.5
2017-Oct-13 20:30N 49°07' W 123°05'0 0.2
2017-Oct-13 20:00N 49°07' W 123°05'0 0.0
2017-Oct-13 19:30N 49°07' W 123°05'0 0.0
2017-Oct-13 19:00N 49°07' W 123°05'1 1.3
2017-Oct-13 18:30N 49°08' W 123°04'3 6.3
2017-Oct-13 18:00N 49°09' W 123°00'1 1.3
2017-Oct-13 17:30N 49°09' W 122°59'1 1.3
2017-Oct-13 17:00N 49°09' W 123°00'4 7.1
2017-Oct-13 16:30N 49°07' W 123°05'0 0.5
2017-Oct-13 16:00N 49°07' W 123°05'0 0.0
2017-Oct-13 15:30N 49°07' W 123°05'0 0.0
2017-Oct-13 15:00N 49°07' W 123°05'0 0.1
2017-Oct-13 14:30N 49°07' W 123°05'2 3.5
2017-Oct-13 14:00N 49°08' W 123°03'1 1.3
2017-Oct-13 13:30N 49°08' W 123°04'1 1.1
2017-Oct-13 13:00N 49°08' W 123°03'1 1.6
2017-Oct-13 12:30N 49°08' W 123°04'1 1.9
2017-Oct-13 12:00N 49°07' W 123°05'0 0.0
2017-Oct-13 11:30N 49°07' W 123°05'0 0.0
2017-Oct-13 11:00N 49°07' W 123°05'0 0.3
2017-Oct-13 10:30N 49°07' W 123°05'0 0.7
2017-Oct-13 10:00N 49°07' W 123°06'1 2.4
2017-Oct-13 09:30N 49°08' W 123°04'4 7.9
2017-Oct-13 09:00N 49°09' W 122°59'1 1.2
2017-Oct-13 08:30N 49°09' W 122°60'1 1.1
2017-Oct-13 08:00N 49°09' W 123°00'3 6.2
2017-Oct-13 07:30N 49°07' W 123°04'0 0.9
2017-Oct-13 07:00N 49°07' W 123°05'0 0.0
2017-Oct-13 06:30N 49°07' W 123°05'0 0.0
2017-Oct-13 05:53N 49°07' W 123°05'0 0.4
2017-Oct-13 05:30N 49°07' W 123°05'2 3.9
2017-Oct-13 04:59N 49°09' W 123°03'1 1.4
2017-Oct-13 04:23N 49°08' W 123°03'1 2.5
2017-Oct-13 03:53N 49°07' W 123°05'0 0.0
2017-Oct-13 03:29N 49°07' W 123°05'0 0.0
2017-Oct-13 02:59N 49°07' W 123°05'0 0.0
2017-Oct-13 02:29N 49°07' W 123°05'0 0.0
2017-Oct-13 02:00N 49°07' W 123°05'2 3.7
2017-Oct-13 01:28N 49°09' W 123°03'1 1.4
2017-Oct-13 00:59N 49°08' W 123°03'0 0.7
2017-Oct-13 00:29N 49°08' W 123°03'1 2.9
2017-Oct-13 00:00N 49°07' W 123°04'0 0.6
2017-Oct-12 23:27N 49°07' W 123°05'0 0.0
2017-Oct-12 23:00N 49°07' W 123°05'0 0.0
2017-Oct-12 22:30N 49°07' W 123°05'0 0.8
2017-Oct-12 22:00N 49°07' W 123°04'4 8.4
2017-Oct-12 21:30N 49°09' W 122°59'1 1.6
2017-Oct-12 20:58N 49°09' W 122°57'0 1.0
2017-Oct-12 20:30N 49°09' W 122°57'5 9.5
2017-Oct-12 20:00N 49°08' W 123°04'1 2.1
2017-Oct-12 19:28N 49°07' W 123°05'0 0.0
2017-Oct-12 18:58N 49°07' W 123°05'0 0.0
2017-Oct-12 18:28N 49°07' W 123°05'1 1.4
2017-Oct-12 18:00N 49°08' W 123°04'1 1.3
2017-Oct-12 17:28N 49°08' W 123°03'0 1.0
2017-Oct-12 17:00N 49°08' W 123°03'2 3.7
2017-Oct-12 16:30N 49°07' W 123°05'0 0.0
2017-Oct-12 15:58N 49°07' W 123°05'0 0.0
2017-Oct-12 15:30N 49°07' W 123°05'0 0.0
2017-Oct-12 15:00N 49°07' W 123°05'0 0.1
2017-Oct-12 14:30N 49°07' W 123°05'3 7.0
2017-Oct-12 14:01N 49°09' W 123°00'0 0.3
2017-Oct-12 13:30N 49°09' W 123°00'0 0.5
2017-Oct-12 12:58N 49°09' W 122°60'1 1.1
2017-Oct-12 12:29N 49°09' W 123°01'3 5.6
2017-Oct-12 11:52N 49°07' W 123°05'0 0.0
2017-Oct-12 11:28N 49°07' W 123°05'0 0.0
2017-Oct-12 10:58N 49°07' W 123°05'0 0.0
2017-Oct-12 10:25N 49°07' W 123°05'0 0.6
2017-Oct-12 10:00N 49°07' W 123°05'2 3.7
2017-Oct-12 09:30N 49°08' W 123°03'0 0.6
2017-Oct-12 09:00N 49°09' W 123°03'0 1.0
2017-Oct-12 08:30N 49°08' W 123°03'1 1.3
2017-Oct-12 07:21N 49°07' W 123°05'0 0.0
2017-Oct-12 06:41N 49°07' W 123°05'0 0.2
2017-Oct-12 06:22N 49°07' W 123°05'2 5.2
2017-Oct-12 05:59N 49°09' W 123°03'1 1.3
2017-Oct-12 05:30N 49°08' W 123°04'0 0.6
2017-Oct-12 05:00N 49°08' W 123°03'2 2.9
2017-Oct-12 04:29N 49°07' W 123°05'0 0.0
2017-Oct-12 03:41N 49°07' W 123°05'0 0.0
2017-Oct-12 03:26N 49°07' W 123°05'0 0.0
2017-Oct-12 02:59N 49°07' W 123°05'0 0.3
2017-Oct-12 02:30N 49°07' W 123°05'4 8.2
2017-Oct-12 01:57N 49°09' W 122°59'1 1.2
2017-Oct-12 01:30N 49°09' W 123°00'0 0.3
2017-Oct-12 00:58N 49°09' W 122°60'2 3.7
2017-Oct-12 00:30N 49°09' W 123°02'2 3.5
2017-Oct-11 23:50N 49°07' W 123°05'0 0.0
2017-Oct-11 23:26N 49°07' W 123°05'0 0.0
2017-Oct-11 22:56N 49°07' W 123°05'0 0.2
2017-Oct-11 22:31N 49°07' W 123°05'2 3.0
2017-Oct-11 22:00N 49°08' W 123°03'0 0.9
2017-Oct-11 21:30N 49°09' W 123°03'0 0.9
2017-Oct-11 21:00N 49°08' W 123°03'2 3.3
2017-Oct-11 20:28N 49°07' W 123°05'0 0.6
2017-Oct-11 19:58N 49°07' W 123°05'0 0.0
2017-Oct-11 19:28N 49°07' W 123°05'0 0.0
2017-Oct-11 18:58N 49°07' W 123°05'0 0.7
2017-Oct-11 18:30N 49°07' W 123°04'1 2.0
2017-Oct-11 17:59N 49°08' W 123°03'1 1.1
2017-Oct-11 17:30N 49°09' W 123°03'2 3.4
2017-Oct-11 16:58N 49°07' W 123°05'0 0.0
2017-Oct-10 23:57N 49°07' W 123°05'0 0.0
2017-Oct-10 23:24N 49°07' W 123°05'0 0.1
2017-Oct-10 22:57N 49°07' W 123°05'1 1.3
2017-Oct-10 22:24N 49°07' W 123°06'1 1.5
2017-Oct-10 22:00N 49°07' W 123°05'0 0.4
2017-Oct-10 21:30N 49°07' W 123°05'0 0.6
2017-Oct-10 20:48N 49°07' W 123°06'0 0.4
2017-Oct-10 20:30N 49°07' W 123°06'1 1.7
2017-Oct-10 19:57N 49°07' W 123°05'0 0.0
2017-Oct-10 19:30N 49°07' W 123°05'0 0.0
2017-Oct-10 19:00N 49°07' W 123°05'1 1.3
2017-Oct-10 18:27N 49°07' W 123°06'0 0.6
2017-Oct-10 18:01N 49°07' W 123°05'0 0.2
2017-Oct-10 17:30N 49°07' W 123°05'0 0.5
2017-Oct-10 16:59N 49°07' W 123°06'1 1.2
2017-Oct-10 16:29N 49°07' W 123°05'0 0.0
2017-Oct-10 15:59N 49°07' W 123°05'0 0.0
2017-Oct-10 15:29N 49°07' W 123°05'0 0.0
2017-Oct-10 14:59N 49°07' W 123°05'4 4.0
2017-Oct-10 13:58N 49°07' W 123°11'0 0.0
2017-Oct-10 13:30N 49°07' W 123°11'0 0.5
2017-Oct-10 12:57N 49°07' W 123°11'1 1.5
2017-Oct-10 12:30N 49°08' W 123°12'1 1.3
2017-Oct-10 12:01N 49°08' W 123°13'3 5.8
2017-Oct-10 11:31N 49°07' W 123°17'0 0.6
2017-Oct-10 11:00N 49°06' W 123°18'5 7.9
2017-Oct-10 10:26N 49°07' W 123°11'0 0.9
2017-Oct-10 09:56N 49°07' W 123°11'0 0.9
2017-Oct-10 09:26N 49°07' W 123°12'3 6.4
2017-Oct-10 09:00N 49°07' W 123°16'2 4.7
2017-Oct-10 08:30N 49°06' W 123°19'510.3
2017-Oct-10 08:00N 49°07' W 123°12'0 0.2
2017-Oct-10 07:25N 49°07' W 123°12'1 1.3
2017-Oct-10 06:58N 49°07' W 123°12'1 2.9
2017-Oct-10 06:30N 49°08' W 123°14'4 6.8
2017-Oct-10 05:58N 49°06' W 123°19'4 9.3
2017-Oct-10 05:30N 49°08' W 123°13'2 3.2
2017-Oct-10 05:00N 49°07' W 123°11'1 1.5
2017-Oct-10 04:30N 49°07' W 123°12'2 3.2
2017-Oct-10 04:00N 49°08' W 123°15'4 7.3
2017-Oct-10 03:30N 49°06' W 123°19'510.2
2017-Oct-10 03:00N 49°07' W 123°12'0 0.6
2017-Oct-10 02:29N 49°07' W 123°12'1 1.2
2017-Oct-10 01:59N 49°07' W 123°12'2 4.3
2017-Oct-10 01:30N 49°07' W 123°16'2 3.6
2017-Oct-10 01:00N 49°06' W 123°18'5 8.5
2017-Oct-10 00:28N 49°07' W 123°11'1 1.3
2017-Oct-09 23:58N 49°07' W 123°12'1 1.6
2017-Oct-09 23:25N 49°08' W 123°13'2 4.9
2017-Oct-09 23:00N 49°07' W 123°16'2 4.4
2017-Oct-09 22:31N 49°06' W 123°19'1 1.6
2017-Oct-09 22:00N 49°07' W 123°18'0 0.2
2017-Oct-09 21:28N 49°06' W 123°18'1 1.4
2017-Oct-09 21:00N 49°06' W 123°19'0 0.5
2017-Oct-09 20:30N 49°06' W 123°19'1 2.4
2017-Oct-09 19:59N 49°07' W 123°17'1 1.3
2017-Oct-09 19:29N 49°06' W 123°18'0 0.3
2017-Oct-09 19:01N 49°06' W 123°18'1 1.5
2017-Oct-09 18:30N 49°06' W 123°19'5 9.7
2017-Oct-09 18:00N 49°08' W 123°12'0 0.9
2017-Oct-09 17:29N 49°07' W 123°12'0 0.1
2017-Oct-09 16:56N 49°07' W 123°12'1 1.3
2017-Oct-09 16:29N 49°07' W 123°11'2 4.4
2017-Oct-09 16:01N 49°08' W 123°14'4 7.5
2017-Oct-09 15:30N 49°06' W 123°19'2 3.6
2017-Oct-09 15:00N 49°07' W 123°17'0 0.6
2017-Oct-09 14:27N 49°07' W 123°17'1 1.4
2017-Oct-09 13:59N 49°07' W 123°16'1 1.2
2017-Oct-09 13:30N 49°07' W 123°17'0 0.6
2017-Oct-09 13:00N 49°07' W 123°17'4 8.0
2017-Oct-09 12:29N 49°07' W 123°10'1 1.3
2017-Oct-09 11:56N 49°07' W 123°11'1 1.3
2017-Oct-09 11:29N 49°07' W 123°12'1 1.3
2017-Oct-09 11:00N 49°08' W 123°13'3 6.8
2017-Oct-09 10:30N 49°06' W 123°18'0 0.8
2017-Oct-09 10:00N 49°06' W 123°18'5 9.9
2017-Oct-09 09:28N 49°07' W 123°10'0 0.4
2017-Oct-09 08:59N 49°07' W 123°10'1 1.3
2017-Oct-09 08:29N 49°07' W 123°11'1 1.2
2017-Oct-09 07:59N 49°07' W 123°12'2 4.6
2017-Oct-09 07:30N 49°07' W 123°15'3 5.5
2017-Oct-09 07:00N 49°06' W 123°19'5 9.3
2017-Oct-09 06:31N 49°08' W 123°13'1 2.1
2017-Oct-09 06:00N 49°07' W 123°11'0 0.5
2017-Oct-09 05:29N 49°07' W 123°12'1 1.3
2017-Oct-09 04:59N 49°08' W 123°12'3 5.3
2017-Oct-09 04:31N 49°07' W 123°16'1 1.8
2017-Oct-09 04:00N 49°07' W 123°17'0 0.7
2017-Oct-09 03:30N 49°06' W 123°18'1 1.0
2017-Oct-09 03:00N 49°06' W 123°18'0 0.5
2017-Oct-09 02:31N 49°06' W 123°19'2 4.4
2017-Oct-09 02:00N 49°07' W 123°16'2 4.5
2017-Oct-09 01:29N 49°07' W 123°12'0 0.4
2017-Oct-09 00:59N 49°08' W 123°13'1 1.6
2017-Oct-09 00:29N 49°07' W 123°11'1 1.8
2017-Oct-09 00:00N 49°07' W 123°10'3 6.0
2017-Oct-08 23:30N 49°08' W 123°15'3 6.9
2017-Oct-08 23:00N 49°06' W 123°19'1 1.3
2017-Oct-08 22:30N 49°06' W 123°18'0 0.1
2017-Oct-08 22:00N 49°06' W 123°18'0 0.3
2017-Oct-08 21:28N 49°06' W 123°18'1 1.7
2017-Oct-08 21:00N 49°06' W 123°20'3 6.6
2017-Oct-08 20:30N 49°08' W 123°15'3 6.2
2017-Oct-08 20:00N 49°07' W 123°10'0 0.4
2017-Oct-08 19:31N 49°07' W 123°11'1 1.4
2017-Oct-08 19:01N 49°07' W 123°12'1 1.5
2017-Oct-08 18:31N 49°08' W 123°13'4 7.3
2017-Oct-08 18:00N 49°06' W 123°18'1 1.9
2017-Oct-08 17:30N 49°07' W 123°17'3 6.0
2017-Oct-08 17:00N 49°07' W 123°12'1 1.1
2017-Oct-08 16:23N 49°07' W 123°11'0 1.1
2017-Oct-08 15:59N 49°07' W 123°11'0 0.7
2017-Oct-08 15:30N 49°07' W 123°11'610.8
2017-Oct-08 15:00N 49°06' W 123°19'3 6.3
2017-Oct-08 14:30N 49°07' W 123°15'2 4.0
2017-Oct-08 13:59N 49°07' W 123°12'1 1.0
2017-Oct-08 13:29N 49°07' W 123°11'1 1.2
2017-Oct-08 13:00N 49°07' W 123°11'1 2.3
2017-Oct-08 12:30N 49°07' W 123°12'5 9.2
2017-Oct-08 11:59N 49°06' W 123°19'2 3.4
2017-Oct-08 11:30N 49°07' W 123°17'5 8.8
2017-Oct-08 11:00N 49°07' W 123°10'1 1.5
2017-Oct-08 10:30N 49°07' W 123°11'1 1.4
2017-Oct-08 10:00N 49°07' W 123°12'1 1.4
2017-Oct-08 09:30N 49°08' W 123°13'3 6.0
2017-Oct-08 09:01N 49°07' W 123°17'1 1.6
2017-Oct-08 08:30N 49°06' W 123°18'510.0
2017-Oct-08 08:00N 49°07' W 123°11'0 0.6
2017-Oct-08 07:30N 49°07' W 123°10'1 1.4
2017-Oct-08 07:00N 49°07' W 123°11'1 1.3
2017-Oct-08 06:27N 49°07' W 123°12'1 1.6
2017-Oct-08 06:00N 49°08' W 123°13'4 8.4
2017-Oct-08 05:29N 49°06' W 123°19'3 7.1
2017-Oct-08 05:00N 49°08' W 123°15'2 3.3
2017-Oct-08 04:29N 49°07' W 123°12'1 1.3
2017-Oct-08 04:00N 49°07' W 123°11'1 1.4
2017-Oct-08 03:27N 49°07' W 123°10'3 7.7
2017-Oct-08 03:00N 49°07' W 123°15'3 5.3
2017-Oct-08 02:30N 49°06' W 123°19'4 8.3
2017-Oct-08 02:00N 49°08' W 123°13'  
Track history (hours):
 
Tides and Currents Weather Stations Pressure Air Temp Water Temp Dewpoint Dewpoint Depression Visibility Wind Speed Wind Dir Waves Ship Positions

Frpd 309

Last reported at 2017-Oct-18 02:00 UTC. Time now 2017-Oct-18 02:26 UTC.
Position N 49°08' W 123°13'.

Length 124 m; draft 6.9 m.

Type: Dredging. MMSI: 316029591.

Date/timePositionNaut miles runAvg speedWind from/ knotsBaromVisibWave heightAir tempDewpointWater temp
2017-Oct-18 02:00N 49°08' W 123°13'1 1.1
2017-Oct-18 01:30N 49°07' W 123°12'1 1.6
2017-Oct-18 01:00N 49°07' W 123°11'0 0.5
2017-Oct-18 00:30N 49°07' W 123°11'5 9.8
2017-Oct-18 00:00N 49°06' W 123°18'2 4.3
2017-Oct-17 23:31N 49°07' W 123°16'2 4.7
2017-Oct-17 23:01N 49°07' W 123°12'0 0.9
2017-Oct-17 22:30N 49°07' W 123°12'1 1.4
2017-Oct-17 22:00N 49°07' W 123°11'1 1.5
2017-Oct-17 21:31N 49°07' W 123°12'5 9.2
2017-Oct-17 21:00N 49°06' W 123°18'3 5.6
2017-Oct-17 20:30N 49°08' W 123°15'2 4.5
2017-Oct-17 19:59N 49°07' W 123°11'0 0.5
2017-Oct-17 19:29N 49°07' W 123°11'1 1.1
2017-Oct-17 19:00N 49°07' W 123°12'0 0.5
2017-Oct-17 18:30N 49°07' W 123°12'4 8.5
2017-Oct-17 18:00N 49°06' W 123°18'2 4.0
2017-Oct-17 17:31N 49°07' W 123°16'3 6.8
2017-Oct-17 17:01N 49°07' W 123°11'1 1.1
2017-Oct-17 16:30N 49°07' W 123°11'0 0.2
2017-Oct-17 16:01N 49°07' W 123°11'2 3.3
2017-Oct-17 15:30N 49°08' W 123°13'4 8.6
2017-Oct-17 15:00N 49°06' W 123°19'5 9.6
2017-Oct-17 14:30N 49°08' W 123°12'1 1.2
2017-Oct-17 14:00N 49°07' W 123°12'0 0.9
2017-Oct-17 13:31N 49°07' W 123°11'1 1.6
2017-Oct-17 13:00N 49°07' W 123°12'3 5.9
2017-Oct-17 12:30N 49°07' W 123°17'1 1.4
2017-Oct-17 12:00N 49°07' W 123°18'3 6.9
2017-Oct-17 11:30N 49°08' W 123°12'1 1.2
2017-Oct-17 11:00N 49°07' W 123°12'1 1.3
2017-Oct-17 10:30N 49°07' W 123°11'3 6.6
2017-Oct-17 10:01N 49°07' W 123°16'2 4.6
2017-Oct-17 09:30N 49°06' W 123°19'4 8.0
2017-Oct-17 09:00N 49°08' W 123°14'1 2.6
2017-Oct-17 08:30N 49°07' W 123°12'1 1.2
2017-Oct-17 08:01N 49°08' W 123°13'1 2.5
2017-Oct-17 07:30N 49°08' W 123°15'4 7.1
2017-Oct-17 07:00N 49°06' W 123°19'5 9.0
2017-Oct-17 06:30N 49°08' W 123°13'1 2.2
2017-Oct-17 06:01N 49°07' W 123°11'0 0.3
2017-Oct-17 05:30N 49°07' W 123°11'0 0.3
2017-Oct-17 05:00N 49°07' W 123°11'2 4.8
2017-Oct-17 04:30N 49°08' W 123°15'3 6.8
2017-Oct-17 04:00N 49°06' W 123°20'611.3
2017-Oct-17 03:30N 49°07' W 123°11'0 0.8
2017-Oct-17 03:01N 49°07' W 123°11'1 1.5
2017-Oct-17 02:30N 49°07' W 123°12'1 1.6
2017-Oct-17 02:00N 49°08' W 123°13'4 8.7
2017-Oct-17 01:31N 49°06' W 123°19'3 6.7
2017-Oct-17 01:00N 49°08' W 123°14'2 4.2
2017-Oct-17 00:30N 49°07' W 123°11'0 0.4
2017-Oct-17 00:00N 49°07' W 123°12'1 1.2
2017-Oct-16 23:30N 49°08' W 123°12'2 3.2
2017-Oct-16 23:00N 49°08' W 123°15'3 5.3
2017-Oct-16 22:30N 49°06' W 123°18'4 8.2
2017-Oct-16 22:00N 49°07' W 123°12'1 1.1
2017-Oct-16 21:31N 49°07' W 123°12'1 1.0
2017-Oct-16 21:00N 49°07' W 123°11'2 3.5
2017-Oct-16 20:31N 49°08' W 123°13'4 8.1
2017-Oct-16 20:01N 49°06' W 123°19'5 9.4
2017-Oct-16 19:31N 49°07' W 123°12'0 0.8
2017-Oct-16 19:00N 49°07' W 123°12'0 0.3
2017-Oct-16 18:31N 49°07' W 123°11'1 1.2
2017-Oct-16 18:00N 49°07' W 123°12'2 3.3
2017-Oct-16 17:30N 49°08' W 123°15'3 7.0
2017-Oct-16 17:00N 49°06' W 123°20'1 2.1
2017-Oct-16 16:30N 49°06' W 123°18'0 0.2
2017-Oct-16 16:00N 49°06' W 123°18'0 0.5
2017-Oct-16 15:30N 49°06' W 123°18'1 1.8
2017-Oct-16 15:01N 49°06' W 123°20'6 5.6
2017-Oct-16 14:00N 49°07' W 123°11'0 0.3
2017-Oct-16 13:30N 49°07' W 123°12'1 1.4
2017-Oct-16 13:00N 49°08' W 123°12'4 7.5
2017-Oct-16 12:30N 49°06' W 123°18'1 1.1
2017-Oct-16 12:00N 49°07' W 123°17'4 8.6
2017-Oct-16 11:30N 49°07' W 123°11'1 1.4
2017-Oct-16 11:00N 49°07' W 123°12'1 1.4
2017-Oct-16 10:30N 49°08' W 123°12'2 4.8
2017-Oct-16 10:00N 49°07' W 123°16'2 3.3
2017-Oct-16 09:30N 49°06' W 123°18'5 9.9
2017-Oct-16 09:00N 49°07' W 123°11'1 1.1
2017-Oct-16 08:30N 49°07' W 123°12'1 1.5
2017-Oct-16 08:00N 49°08' W 123°13'2 3.2
2017-Oct-16 07:30N 49°08' W 123°15'3 6.0
2017-Oct-16 07:00N 49°06' W 123°19'510.2
2017-Oct-16 06:30N 49°07' W 123°12'1 1.1
2017-Oct-16 06:00N 49°07' W 123°11'0 0.4
2017-Oct-16 05:30N 49°07' W 123°11'1 1.3
2017-Oct-16 05:00N 49°07' W 123°11'3 5.3
2017-Oct-16 04:30N 49°07' W 123°15'2 4.8
2017-Oct-16 04:00N 49°06' W 123°19'1 1.5
2017-Oct-16 03:30N 49°06' W 123°18'0 0.7
2017-Oct-16 03:00N 49°06' W 123°18'0 0.6
2017-Oct-16 02:30N 49°06' W 123°18'1 1.2
2017-Oct-16 02:00N 49°06' W 123°19'5 9.8
2017-Oct-16 01:30N 49°08' W 123°12'0 0.6
2017-Oct-16 01:01N 49°07' W 123°12'0 0.9
2017-Oct-16 00:30N 49°07' W 123°11'0 0.5
2017-Oct-16 00:00N 49°07' W 123°11'3 6.3
2017-Oct-15 23:30N 49°07' W 123°16'2 4.6
2017-Oct-15 23:00N 49°06' W 123°19'3 6.6
2017-Oct-15 22:30N 49°08' W 123°15'2 3.4
2017-Oct-15 22:00N 49°07' W 123°12'0 0.8
2017-Oct-15 21:30N 49°07' W 123°12'1 1.1
2017-Oct-15 21:00N 49°07' W 123°11'3 7.0
2017-Oct-15 20:30N 49°07' W 123°16'1 1.6
2017-Oct-15 20:00N 49°07' W 123°17'5 9.3
2017-Oct-15 19:30N 49°07' W 123°10'1 1.0
2017-Oct-15 19:00N 49°07' W 123°11'1 1.3
2017-Oct-15 18:30N 49°07' W 123°12'1 1.1
2017-Oct-15 18:00N 49°08' W 123°13'2 4.6
2017-Oct-15 17:30N 49°07' W 123°16'2 3.4
2017-Oct-15 17:00N 49°06' W 123°18'5 9.7
2017-Oct-15 16:30N 49°07' W 123°11'1 1.0
2017-Oct-15 16:00N 49°07' W 123°12'1 1.2
2017-Oct-15 15:30N 49°07' W 123°12'1 1.6
2017-Oct-15 15:00N 49°08' W 123°13'4 4.0
2017-Oct-15 14:00N 49°06' W 123°19'0 0.6
2017-Oct-15 13:30N 49°06' W 123°19'0 0.4
2017-Oct-15 13:00N 49°06' W 123°20'4 7.7
2017-Oct-15 12:30N 49°08' W 123°14'2 3.6
2017-Oct-15 12:00N 49°07' W 123°12'1 1.2
2017-Oct-15 11:30N 49°08' W 123°13'2 3.6
2017-Oct-15 11:00N 49°07' W 123°15'3 6.7
2017-Oct-15 10:30N 49°06' W 123°20'0 0.7
2017-Oct-15 10:00N 49°06' W 123°19'0 0.4
2017-Oct-15 09:30N 49°06' W 123°19'4 7.6
2017-Oct-15 09:00N 49°08' W 123°14'2 3.5
2017-Oct-15 08:30N 49°07' W 123°12'1 1.2
2017-Oct-15 08:00N 49°07' W 123°12'1 1.4
2017-Oct-15 07:30N 49°08' W 123°13'4 9.0
2017-Oct-15 07:00N 49°06' W 123°20'0 0.6
2017-Oct-15 06:30N 49°06' W 123°19'1 1.2
2017-Oct-15 06:00N 49°06' W 123°20'1 1.4
2017-Oct-15 05:30N 49°06' W 123°19'510.1
2017-Oct-15 05:00N 49°07' W 123°12'1 1.4
2017-Oct-15 04:30N 49°07' W 123°11'1 1.5
2017-Oct-15 04:00N 49°07' W 123°12'1 1.6
2017-Oct-15 03:30N 49°08' W 123°13'4 8.1
2017-Oct-15 03:00N 49°06' W 123°19'1 1.7
2017-Oct-15 02:30N 49°06' W 123°17'0 0.2
2017-Oct-15 02:00N 49°07' W 123°18'1 1.3
2017-Oct-15 01:30N 49°06' W 123°18'0 0.3
2017-Oct-15 01:00N 49°06' W 123°19'0 0.8
2017-Oct-15 00:30N 49°06' W 123°18'4 8.2
2017-Oct-15 00:00N 49°07' W 123°12'0 0.9
2017-Oct-14 23:30N 49°07' W 123°12'0 0.7
2017-Oct-14 23:00N 49°07' W 123°11'1 1.1
2017-Oct-14 22:30N 49°07' W 123°10'4 7.4
2017-Oct-14 22:00N 49°07' W 123°16'1 2.2
2017-Oct-14 21:30N 49°07' W 123°17'3 6.4
2017-Oct-14 21:00N 49°08' W 123°13'1 1.1
2017-Oct-14 20:30N 49°07' W 123°12'1 1.4
2017-Oct-14 20:00N 49°07' W 123°11'0 0.9
2017-Oct-14 19:30N 49°07' W 123°11'611.1
2017-Oct-14 19:00N 49°06' W 123°19'2 4.8
2017-Oct-14 18:30N 49°07' W 123°16'3 5.5
2017-Oct-14 18:00N 49°07' W 123°12'0 0.6
2017-Oct-14 17:30N 49°07' W 123°11'1 1.2
2017-Oct-14 17:00N 49°07' W 123°12'1 1.2
2017-Oct-14 16:30N 49°08' W 123°13'3 5.1
2017-Oct-14 16:00N 49°07' W 123°17'2 4.1
2017-Oct-14 15:30N 49°06' W 123°20'0 0.6
2017-Oct-14 15:00N 49°06' W 123°19'5 9.9
2017-Oct-14 14:30N 49°07' W 123°12'1 1.7
2017-Oct-14 14:00N 49°07' W 123°11'0 0.5
2017-Oct-14 13:30N 49°07' W 123°11'1 1.1
2017-Oct-14 13:00N 49°07' W 123°11'2 4.1
2017-Oct-14 12:30N 49°08' W 123°14'4 7.5
2017-Oct-14 12:00N 49°06' W 123°20'1 2.2
2017-Oct-14 11:30N 49°06' W 123°18'0 0.3
2017-Oct-14 11:00N 49°06' W 123°18'0 0.0
2017-Oct-14 10:30N 49°06' W 123°18'0 1.0
2017-Oct-14 10:00N 49°06' W 123°18'1 1.5
2017-Oct-14 09:30N 49°06' W 123°19'4 8.4
2017-Oct-14 09:00N 49°08' W 123°14'2 3.5
2017-Oct-14 08:30N 49°07' W 123°11'1 1.5
2017-Oct-14 08:00N 49°07' W 123°12'1 1.6
2017-Oct-14 07:30N 49°08' W 123°13'4 8.6
2017-Oct-14 07:00N 49°06' W 123°19'4 7.5
2017-Oct-14 06:30N 49°08' W 123°14'2 5.0
2017-Oct-14 06:00N 49°07' W 123°11'1 1.4
2017-Oct-14 05:30N 49°07' W 123°12'0 0.9
2017-Oct-14 05:00N 49°07' W 123°11'1 1.9
2017-Oct-14 04:30N 49°08' W 123°12'4 7.8
2017-Oct-14 04:00N 49°06' W 123°18'1 1.6
2017-Oct-14 03:30N 49°07' W 123°17'0 0.3
2017-Oct-14 03:00N 49°07' W 123°17'1 1.6
2017-Oct-14 02:30N 49°06' W 123°18'1 1.0
2017-Oct-14 02:00N 49°06' W 123°19'4 8.2
2017-Oct-14 01:30N 49°08' W 123°13'2 3.9
2017-Oct-14 01:00N 49°07' W 123°11'1 1.2
2017-Oct-14 00:28N 49°07' W 123°12'1 1.1
2017-Oct-13 23:55N 49°08' W 123°12'1 3.6
2017-Oct-13 23:30N 49°08' W 123°15'4 7.0
2017-Oct-13 23:00N 49°06' W 123°19'2 3.4
2017-Oct-13 22:30N 49°07' W 123°17'3 6.6
2017-Oct-13 22:00N 49°07' W 123°12'0 0.9
2017-Oct-13 21:30N 49°07' W 123°12'1 1.5
2017-Oct-13 21:00N 49°07' W 123°11'4 7.5
2017-Oct-13 20:30N 49°07' W 123°05'0 0.2
2017-Oct-13 20:00N 49°07' W 123°05'0 0.0
2017-Oct-13 19:30N 49°07' W 123°05'0 0.0
2017-Oct-13 19:00N 49°07' W 123°05'1 1.3
2017-Oct-13 18:30N 49°08' W 123°04'3 6.3
2017-Oct-13 18:00N 49°09' W 123°00'1 1.3
2017-Oct-13 17:30N 49°09' W 122°59'1 1.3
2017-Oct-13 17:00N 49°09' W 123°00'4 7.1
2017-Oct-13 16:30N 49°07' W 123°05'0 0.5
2017-Oct-13 16:00N 49°07' W 123°05'0 0.0
2017-Oct-13 15:30N 49°07' W 123°05'0 0.0
2017-Oct-13 15:00N 49°07' W 123°05'0 0.1
2017-Oct-13 14:30N 49°07' W 123°05'2 3.5
2017-Oct-13 14:00N 49°08' W 123°03'1 1.3
2017-Oct-13 13:30N 49°08' W 123°04'1 1.1
2017-Oct-13 13:00N 49°08' W 123°03'1 1.6
2017-Oct-13 12:30N 49°08' W 123°04'1 1.9
2017-Oct-13 12:00N 49°07' W 123°05'0 0.0
2017-Oct-13 11:30N 49°07' W 123°05'0 0.0
2017-Oct-13 11:00N 49°07' W 123°05'0 0.3
2017-Oct-13 10:30N 49°07' W 123°05'0 0.7
2017-Oct-13 10:00N 49°07' W 123°06'1 2.4
2017-Oct-13 09:30N 49°08' W 123°04'4 7.9
2017-Oct-13 09:00N 49°09' W 122°59'1 1.2
2017-Oct-13 08:30N 49°09' W 122°60'1 1.1
2017-Oct-13 08:00N 49°09' W 123°00'3 6.2
2017-Oct-13 07:30N 49°07' W 123°04'0 0.9
2017-Oct-13 07:00N 49°07' W 123°05'0 0.0
2017-Oct-13 06:30N 49°07' W 123°05'0 0.0
2017-Oct-13 05:53N 49°07' W 123°05'0 0.4
2017-Oct-13 05:30N 49°07' W 123°05'2 3.9
2017-Oct-13 04:59N 49°09' W 123°03'1 1.4
2017-Oct-13 04:23N 49°08' W 123°03'1 2.5
2017-Oct-13 03:53N 49°07' W 123°05'0 0.0
2017-Oct-13 03:29N 49°07' W 123°05'0 0.0
2017-Oct-13 02:59N 49°07' W 123°05'0 0.0
2017-Oct-13 02:29N 49°07' W 123°05'0 0.0
2017-Oct-13 02:00N 49°07' W 123°05'2 3.7
2017-Oct-13 01:28N 49°09' W 123°03'1 1.4
2017-Oct-13 00:59N 49°08' W 123°03'0 0.7
2017-Oct-13 00:29N 49°08' W 123°03'1 2.9
2017-Oct-13 00:00N 49°07' W 123°04'0 0.6
2017-Oct-12 23:27N 49°07' W 123°05'0 0.0
2017-Oct-12 23:00N 49°07' W 123°05'0 0.0
2017-Oct-12 22:30N 49°07' W 123°05'0 0.8
2017-Oct-12 22:00N 49°07' W 123°04'4 8.4
2017-Oct-12 21:30N 49°09' W 122°59'1 1.6
2017-Oct-12 20:58N 49°09' W 122°57'0 1.0
2017-Oct-12 20:30N 49°09' W 122°57'5 9.5
2017-Oct-12 20:00N 49°08' W 123°04'1 2.1
2017-Oct-12 19:28N 49°07' W 123°05'0 0.0
2017-Oct-12 18:58N 49°07' W 123°05'0 0.0
2017-Oct-12 18:28N 49°07' W 123°05'1 1.4
2017-Oct-12 18:00N 49°08' W 123°04'1 1.3
2017-Oct-12 17:28N 49°08' W 123°03'0 1.0
2017-Oct-12 17:00N 49°08' W 123°03'2 3.7
2017-Oct-12 16:30N 49°07' W 123°05'0 0.0
2017-Oct-12 15:58N 49°07' W 123°05'0 0.0
2017-Oct-12 15:30N 49°07' W 123°05'0 0.0
2017-Oct-12 15:00N 49°07' W 123°05'0 0.1
2017-Oct-12 14:30N 49°07' W 123°05'3 7.0
2017-Oct-12 14:01N 49°09' W 123°00'0 0.3
2017-Oct-12 13:30N 49°09' W 123°00'0 0.5
2017-Oct-12 12:58N 49°09' W 122°60'1 1.1
2017-Oct-12 12:29N 49°09' W 123°01'3 5.6
2017-Oct-12 11:52N 49°07' W 123°05'0 0.0
2017-Oct-12 11:28N 49°07' W 123°05'0 0.0
2017-Oct-12 10:58N 49°07' W 123°05'0 0.0
2017-Oct-12 10:25N 49°07' W 123°05'0 0.6
2017-Oct-12 10:00N 49°07' W 123°05'2 3.7
2017-Oct-12 09:30N 49°08' W 123°03'0 0.6
2017-Oct-12 09:00N 49°09' W 123°03'0 1.0
2017-Oct-12 08:30N 49°08' W 123°03'1 1.3
2017-Oct-12 07:21N 49°07' W 123°05'0 0.0
2017-Oct-12 06:41N 49°07' W 123°05'0 0.2
2017-Oct-12 06:22N 49°07' W 123°05'2 5.2
2017-Oct-12 05:59N 49°09' W 123°03'1 1.3
2017-Oct-12 05:30N 49°08' W 123°04'0 0.6
2017-Oct-12 05:00N 49°08' W 123°03'2 2.9
2017-Oct-12 04:29N 49°07' W 123°05'0 0.0
2017-Oct-12 03:41N 49°07' W 123°05'0 0.0
2017-Oct-12 03:26N 49°07' W 123°05'0 0.0
2017-Oct-12 02:59N 49°07' W 123°05'0 0.3
2017-Oct-12 02:30N 49°07' W 123°05'4 8.2
2017-Oct-12 01:57N 49°09' W 122°59'1 1.2
2017-Oct-12 01:30N 49°09' W 123°00'0 0.3
2017-Oct-12 00:58N 49°09' W 122°60'2 3.7
2017-Oct-12 00:30N 49°09' W 123°02'2 3.5
2017-Oct-11 23:50N 49°07' W 123°05'0 0.0
2017-Oct-11 23:26N 49°07' W 123°05'0 0.0
2017-Oct-11 22:56N 49°07' W 123°05'0 0.2
2017-Oct-11 22:31N 49°07' W 123°05'2 3.0
2017-Oct-11 22:00N 49°08' W 123°03'0 0.9
2017-Oct-11 21:30N 49°09' W 123°03'0 0.9
2017-Oct-11 21:00N 49°08' W 123°03'2 3.3
2017-Oct-11 20:28N 49°07' W 123°05'0 0.6
2017-Oct-11 19:58N 49°07' W 123°05'0 0.0
2017-Oct-11 19:28N 49°07' W 123°05'0 0.0
2017-Oct-11 18:58N 49°07' W 123°05'0 0.7
2017-Oct-11 18:30N 49°07' W 123°04'1 2.0
2017-Oct-11 17:59N 49°08' W 123°03'1 1.1
2017-Oct-11 17:30N 49°09' W 123°03'2 3.4
2017-Oct-11 16:58N 49°07' W 123°05'0 0.0
2017-Oct-10 23:57N 49°07' W 123°05'0 0.0
2017-Oct-10 23:24N 49°07' W 123°05'0 0.1
2017-Oct-10 22:57N 49°07' W 123°05'1 1.3
2017-Oct-10 22:24N 49°07' W 123°06'1 1.5
2017-Oct-10 22:00N 49°07' W 123°05'0 0.4
2017-Oct-10 21:30N 49°07' W 123°05'0 0.6
2017-Oct-10 20:48N 49°07' W 123°06'0 0.4
2017-Oct-10 20:30N 49°07' W 123°06'1 1.7
2017-Oct-10 19:57N 49°07' W 123°05'0 0.0
2017-Oct-10 19:30N 49°07' W 123°05'0 0.0
2017-Oct-10 19:00N 49°07' W 123°05'1 1.3
2017-Oct-10 18:27N 49°07' W 123°06'0 0.6
2017-Oct-10 18:01N 49°07' W 123°05'0 0.2
2017-Oct-10 17:30N 49°07' W 123°05'0 0.5
2017-Oct-10 16:59N 49°07' W 123°06'1 1.2
2017-Oct-10 16:29N 49°07' W 123°05'0 0.0
2017-Oct-10 15:59N 49°07' W 123°05'0 0.0
2017-Oct-10 15:29N 49°07' W 123°05'0 0.0
2017-Oct-10 14:59N 49°07' W 123°05'4 4.0
2017-Oct-10 13:58N 49°07' W 123°11'0 0.0
2017-Oct-10 13:30N 49°07' W 123°11'0 0.5
2017-Oct-10 12:57N 49°07' W 123°11'1 1.5
2017-Oct-10 12:30N 49°08' W 123°12'1 1.3
2017-Oct-10 12:01N 49°08' W 123°13'3 5.8
2017-Oct-10 11:31N 49°07' W 123°17'0 0.6
2017-Oct-10 11:00N 49°06' W 123°18'5 7.9
2017-Oct-10 10:26N 49°07' W 123°11'0 0.9
2017-Oct-10 09:56N 49°07' W 123°11'0 0.9
2017-Oct-10 09:26N 49°07' W 123°12'3 6.4
2017-Oct-10 09:00N 49°07' W 123°16'2 4.7
2017-Oct-10 08:30N 49°06' W 123°19'510.3
2017-Oct-10 08:00N 49°07' W 123°12'0 0.2
2017-Oct-10 07:25N 49°07' W 123°12'1 1.3
2017-Oct-10 06:58N 49°07' W 123°12'1 2.9
2017-Oct-10 06:30N 49°08' W 123°14'4 6.8
2017-Oct-10 05:58N 49°06' W 123°19'4 9.3
2017-Oct-10 05:30N 49°08' W 123°13'2 3.2
2017-Oct-10 05:00N 49°07' W 123°11'1 1.5
2017-Oct-10 04:30N 49°07' W 123°12'2 3.2
2017-Oct-10 04:00N 49°08' W 123°15'4 7.3
2017-Oct-10 03:30N 49°06' W 123°19'510.2
2017-Oct-10 03:00N 49°07' W 123°12'0 0.6
2017-Oct-10 02:29N 49°07' W 123°12'1 1.2
2017-Oct-10 01:59N 49°07' W 123°12'2 4.3
2017-Oct-10 01:30N 49°07' W 123°16'2 3.6
2017-Oct-10 01:00N 49°06' W 123°18'5 8.5
2017-Oct-10 00:28N 49°07' W 123°11'1 1.3
2017-Oct-09 23:58N 49°07' W 123°12'1 1.6
2017-Oct-09 23:25N 49°08' W 123°13'2 4.9
2017-Oct-09 23:00N 49°07' W 123°16'2 4.4
2017-Oct-09 22:31N 49°06' W 123°19'1 1.6
2017-Oct-09 22:00N 49°07' W 123°18'0 0.2
2017-Oct-09 21:28N 49°06' W 123°18'1 1.4
2017-Oct-09 21:00N 49°06' W 123°19'0 0.5
2017-Oct-09 20:30N 49°06' W 123°19'1 2.4
2017-Oct-09 19:59N 49°07' W 123°17'1 1.3
2017-Oct-09 19:29N 49°06' W 123°18'0 0.3
2017-Oct-09 19:01N 49°06' W 123°18'1 1.5
2017-Oct-09 18:30N 49°06' W 123°19'5 9.7
2017-Oct-09 18:00N 49°08' W 123°12'0 0.9
2017-Oct-09 17:29N 49°07' W 123°12'0 0.1
2017-Oct-09 16:56N 49°07' W 123°12'1 1.3
2017-Oct-09 16:29N 49°07' W 123°11'2 4.4
2017-Oct-09 16:01N 49°08' W 123°14'4 7.5
2017-Oct-09 15:30N 49°06' W 123°19'2 3.6
2017-Oct-09 15:00N 49°07' W 123°17'0 0.6
2017-Oct-09 14:27N 49°07' W 123°17'1 1.4
2017-Oct-09 13:59N 49°07' W 123°16'1 1.2
2017-Oct-09 13:30N 49°07' W 123°17'0 0.6
2017-Oct-09 13:00N 49°07' W 123°17'4 8.0
2017-Oct-09 12:29N 49°07' W 123°10'1 1.3
2017-Oct-09 11:56N 49°07' W 123°11'1 1.3
2017-Oct-09 11:29N 49°07' W 123°12'1 1.3
2017-Oct-09 11:00N 49°08' W 123°13'3 6.8
2017-Oct-09 10:30N 49°06' W 123°18'0 0.8
2017-Oct-09 10:00N 49°06' W 123°18'5 9.9
2017-Oct-09 09:28N 49°07' W 123°10'0 0.4
2017-Oct-09 08:59N 49°07' W 123°10'1 1.3
2017-Oct-09 08:29N 49°07' W 123°11'1 1.2
2017-Oct-09 07:59N 49°07' W 123°12'2 4.6
2017-Oct-09 07:30N 49°07' W 123°15'3 5.5
2017-Oct-09 07:00N 49°06' W 123°19'5 9.3
2017-Oct-09 06:31N 49°08' W 123°13'1 2.1
2017-Oct-09 06:00N 49°07' W 123°11'0 0.5
2017-Oct-09 05:29N 49°07' W 123°12'1 1.3
2017-Oct-09 04:59N 49°08' W 123°12'3 5.3
2017-Oct-09 04:31N 49°07' W 123°16'1 1.8
2017-Oct-09 04:00N 49°07' W 123°17'0 0.7
2017-Oct-09 03:30N 49°06' W 123°18'1 1.0
2017-Oct-09 03:00N 49°06' W 123°18'0 0.5
2017-Oct-09 02:31N 49°06' W 123°19'2 4.4
2017-Oct-09 02:00N 49°07' W 123°16'2 4.5
2017-Oct-09 01:29N 49°07' W 123°12'0 0.4
2017-Oct-09 00:59N 49°08' W 123°13'1 1.6
2017-Oct-09 00:29N 49°07' W 123°11'1 1.8
2017-Oct-09 00:00N 49°07' W 123°10'3 6.0
2017-Oct-08 23:30N 49°08' W 123°15'3 6.9
2017-Oct-08 23:00N 49°06' W 123°19'1 1.3
2017-Oct-08 22:30N 49°06' W 123°18'0 0.1
2017-Oct-08 22:00N 49°06' W 123°18'0 0.3
2017-Oct-08 21:28N 49°06' W 123°18'1 1.7
2017-Oct-08 21:00N 49°06' W 123°20'3 6.6
2017-Oct-08 20:30N 49°08' W 123°15'3 6.2
2017-Oct-08 20:00N 49°07' W 123°10'0 0.4
2017-Oct-08 19:31N 49°07' W 123°11'1 1.4
2017-Oct-08 19:01N 49°07' W 123°12'1 1.5
2017-Oct-08 18:31N 49°08' W 123°13'4 7.3
2017-Oct-08 18:00N 49°06' W 123°18'1 1.9
2017-Oct-08 17:30N 49°07' W 123°17'3 6.0
2017-Oct-08 17:00N 49°07' W 123°12'1 1.1
2017-Oct-08 16:23N 49°07' W 123°11'0 1.1
2017-Oct-08 15:59N 49°07' W 123°11'0 0.7
2017-Oct-08 15:30N 49°07' W 123°11'610.8
2017-Oct-08 15:00N 49°06' W 123°19'3 6.3
2017-Oct-08 14:30N 49°07' W 123°15'2 4.0
2017-Oct-08 13:59N 49°07' W 123°12'1 1.0
2017-Oct-08 13:29N 49°07' W 123°11'1 1.2
2017-Oct-08 13:00N 49°07' W 123°11'1 2.3
2017-Oct-08 12:30N 49°07' W 123°12'5 9.2
2017-Oct-08 11:59N 49°06' W 123°19'2 3.4
2017-Oct-08 11:30N 49°07' W 123°17'5 8.8
2017-Oct-08 11:00N 49°07' W 123°10'1 1.5
2017-Oct-08 10:30N 49°07' W 123°11'1 1.4
2017-Oct-08 10:00N 49°07' W 123°12'1 1.4
2017-Oct-08 09:30N 49°08' W 123°13'3 6.0
2017-Oct-08 09:01N 49°07' W 123°17'1 1.6
2017-Oct-08 08:30N 49°06' W 123°18'510.0
2017-Oct-08 08:00N 49°07' W 123°11'0 0.6
2017-Oct-08 07:30N 49°07' W 123°10'1 1.4
2017-Oct-08 07:00N 49°07' W 123°11'1 1.3
2017-Oct-08 06:27N 49°07' W 123°12'1 1.6
2017-Oct-08 06:00N 49°08' W 123°13'4 8.4
2017-Oct-08 05:29N 49°06' W 123°19'3 7.1
2017-Oct-08 05:00N 49°08' W 123°15'2 3.3
2017-Oct-08 04:29N 49°07' W 123°12'1 1.3
2017-Oct-08 04:00N 49°07' W 123°11'1 1.4
2017-Oct-08 03:27N 49°07' W 123°10'3 7.7
2017-Oct-08 03:00N 49°07' W 123°15'3 5.3
2017-Oct-08 02:30N 49°06' W 123°19'4 8.3
2017-Oct-08 02:00N 49°08' W 123°13'  

Dump ship's entire track history